Time;durP1;ratioP1;P1;durP2;ratioP2;P2;SDS_P1;SDS_P2;PMS_P1;PMS_P2;Temp;Humidity;BMP_temperature;BMP_pressure;BME280_temperature;BME280_humidity;BME280_pressure;Samples;Min_cycle;Max_cycle;Signal;HPM_P1;HPM_P2
2021/07/10 00:02:16;;;;;;;4.03;3.63;;;15.00;99.90;;;;;;5032224;28;20466;-72
2021/07/10 00:04:46;;;;;;;4.30;3.63;;;14.80;99.90;;;;;;5033011;28;20498;-72
2021/07/10 00:07:15;;;;;;;3.97;3.67;;;14.90;99.90;;;;;;5031637;28;20398;-73
2021/07/10 00:09:43;;;;;;;3.23;2.93;;;14.80;99.90;;;;;;5014810;28;20449;-71
2021/07/10 00:12:11;;;;;;;4.33;3.93;;;14.80;99.90;;;;;;5031405;28;20418;-72
2021/07/10 00:14:39;;;;;;;5.30;4.20;;;14.90;99.90;;;;;;5031868;28;20379;-72
2021/07/10 00:17:08;;;;;;;4.93;4.37;;;14.80;99.90;;;;;;5031642;28;20428;-72
2021/07/10 00:19:37;;;;;;;4.23;3.80;;;14.90;99.90;;;;;;5014202;28;20953;-72
2021/07/10 00:22:05;;;;;;;5.00;4.60;;;14.80;99.90;;;;;;5031610;28;20884;-72
2021/07/10 00:24:34;;;;;;;6.67;4.17;;;14.80;99.90;;;;;;5030960;28;20439;-71
2021/07/10 00:27:03;;;;;;;5.10;4.20;;;14.80;99.90;;;;;;5030760;28;20775;-72
2021/07/10 00:29:31;;;;;;;4.57;4.17;;;14.80;99.90;;;;;;5013091;28;20410;-72
2021/07/10 00:31:59;;;;;;;4.70;4.30;;;14.80;99.90;;;;;;5031290;28;20444;-72
2021/07/10 00:34:27;;;;;;;5.03;4.10;;;14.90;99.90;;;;;;5031035;28;20432;-72
2021/07/10 00:36:57;;;;;;;4.40;4.00;;;14.80;99.90;;;;;;5030775;28;20403;-72
2021/07/10 00:39:25;;;;;;;4.63;3.93;;;14.80;99.90;;;;;;5030886;28;20397;-71
2021/07/10 00:41:53;;;;;;;5.03;4.53;;;14.90;99.90;;;;;;5030457;28;20453;-71
2021/07/10 00:44:21;;;;;;;3.50;3.20;;;14.90;99.90;;;;;;5030357;28;20439;-71
2021/07/10 00:46:49;;;;;;;3.77;3.47;;;14.90;99.90;;;;;;5030705;28;20501;-71
2021/07/10 00:49:18;;;;;;;4.67;4.27;;;14.90;99.90;;;;;;5030618;28;20490;-71
2021/07/10 00:51:46;;;;;;;3.77;3.47;;;14.90;99.90;;;;;;5030812;28;20759;-71
2021/07/10 00:54:16;;;;;;;4.07;3.67;;;15.00;99.90;;;;;;5030678;28;20432;-71
2021/07/10 00:56:45;;;;;;;4.13;3.73;;;15.00;99.90;;;;;;5031084;28;20427;-71
2021/07/10 00:59:14;;;;;;;3.40;3.10;;;15.00;99.90;;;;;;5030308;28;20424;-72
2021/07/10 01:01:43;;;;;;;4.17;3.10;;;15.00;99.90;;;;;;5030485;28;20455;-71
2021/07/10 01:04:14;;;;;;;5.07;4.17;;;15.00;99.90;;;;;;5030176;28;20439;-71
2021/07/10 01:06:43;;;;;;;5.50;3.90;;;15.00;99.90;;;;;;5030820;28;20490;-72
2021/07/10 01:09:11;;;;;;;4.30;3.90;;;15.10;99.90;;;;;;5013102;28;20449;-72
2021/07/10 01:11:41;;;;;;;3.83;3.43;;;15.10;99.90;;;;;;5030956;28;20444;-71
2021/07/10 01:14:10;;;;;;;3.43;3.03;;;15.10;99.90;;;;;;5031216;28;20425;-72
2021/07/10 01:16:38;;;;;;;4.20;3.70;;;15.20;99.90;;;;;;5030799;28;20420;-71
2021/07/10 01:19:07;;;;;;;4.73;4.33;;;15.30;99.90;;;;;;5030504;28;20486;-71
2021/07/10 01:21:36;;;;;;;4.70;4.20;;;15.20;99.90;;;;;;5014510;28;20456;-71
2021/07/10 01:24:05;;;;;;;5.37;4.83;;;15.10;99.90;;;;;;5033500;28;20412;-72
2021/07/10 01:26:33;;;;;;;4.07;3.77;;;15.10;99.90;;;;;;5033101;28;20473;-71
2021/07/10 01:29:01;;;;;;;5.00;3.80;;;15.00;99.90;;;;;;5033417;28;20424;-71
2021/07/10 01:31:32;;;;;;;7.03;5.43;;;15.10;99.90;;;;;;5012542;28;20468;-71
2021/07/10 01:34:01;;;;;;;5.50;4.93;;;15.00;99.90;;;;;;5029959;28;20402;-72
2021/07/10 01:36:30;;;;;;;4.80;4.40;;;15.10;99.90;;;;;;5029594;28;20395;-71
2021/07/10 01:38:59;;;;;;;6.97;5.60;;;15.00;99.90;;;;;;5029963;28;21102;-72
2021/07/10 01:41:27;;;;;;;8.33;6.87;;;15.00;99.90;;;;;;5029479;28;20455;-71
2021/07/10 01:43:55;;;;;;;11.27;6.80;;;15.00;99.90;;;;;;5029692;28;20382;-71
2021/07/10 01:46:24;;;;;;;6.63;6.03;;;15.00;99.90;;;;;;5029156;28;20514;-71
2021/07/10 01:48:52;;;;;;;8.93;6.53;;;15.10;99.90;;;;;;5011848;28;20509;-71
2021/07/10 01:51:20;;;;;;;8.40;7.40;;;15.10;99.90;;;;;;5012266;28;20434;-71
2021/07/10 01:53:48;;;;;;;10.73;6.40;;;15.10;99.90;;;;;;5012335;28;20816;-72
2021/07/10 01:56:18;;;;;;;8.60;6.73;;;15.10;99.90;;;;;;5030057;28;20383;-72
2021/07/10 01:58:46;;;;;;;7.30;6.70;;;15.10;99.90;;;;;;5012556;28;20815;-73
2021/07/10 02:01:14;;;;;;;9.67;7.33;;;15.10;99.90;;;;;;5031933;28;20509;-72
2021/07/10 02:03:42;;;;;;;7.23;5.67;;;15.10;99.90;;;;;;5036348;28;20428;-72
2021/07/10 02:06:11;;;;;;;7.57;5.90;;;15.10;99.90;;;;;;5039273;28;20471;-72
2021/07/10 02:08:40;;;;;;;13.93;7.57;;;15.20;99.90;;;;;;5037402;28;20435;-71
2021/07/10 02:11:08;;;;;;;8.07;7.27;;;15.20;99.90;;;;;;5037667;28;20542;-72
2021/07/10 02:13:37;;;;;;;8.57;7.47;;;15.30;99.90;;;;;;5035408;28;20424;-71
2021/07/10 02:16:06;;;;;;;9.83;7.10;;;15.30;99.90;;;;;;5037038;28;20480;-71
2021/07/10 02:18:34;;;;;;;7.57;6.80;;;15.30;99.90;;;;;;5039442;28;20386;-72
2021/07/10 02:21:03;;;;;;;9.00;7.93;;;15.40;99.90;;;;;;5039333;28;20418;-72
2021/07/10 02:23:31;;;;;;;10.27;8.87;;;15.30;99.90;;;;;;5017405;28;21122;-71
2021/07/10 02:25:59;;;;;;;8.93;8.10;;;15.30;99.90;;;;;;5035093;28;20879;-70
2021/07/10 02:28:27;;;;;;;8.97;7.37;;;15.40;99.90;;;;;;5035027;28;20404;-71
2021/07/10 02:30:57;;;;;;;10.37;7.03;;;15.40;99.90;;;;;;5035135;28;20449;-71
2021/07/10 02:33:25;;;;;;;8.50;7.50;;;15.40;99.90;;;;;;5035314;28;20391;-72
2021/07/10 02:35:54;;;;;;;10.73;6.50;;;15.40;99.90;;;;;;5017072;28;20476;-71
2021/07/10 02:38:22;;;;;;;9.30;7.23;;;15.40;99.90;;;;;;5035230;28;20406;-71
2021/07/10 02:40:50;;;;;;;10.07;8.07;;;15.50;99.90;;;;;;5034861;28;20460;-71
2021/07/10 02:43:18;;;;;;;8.80;7.13;;;15.50;99.90;;;;;;5033768;28;20422;-71
2021/07/10 02:45:46;;;;;;;8.70;7.80;;;15.60;99.90;;;;;;5033428;28;20455;-71
2021/07/10 02:48:16;;;;;;;9.00;8.07;;;15.70;99.90;;;;;;5015368;28;20500;-72
2021/07/10 02:50:44;;;;;;;7.83;7.07;;;15.80;99.90;;;;;;5032991;28;20433;-71
2021/07/10 02:53:13;;;;;;;10.00;7.40;;;15.80;99.90;;;;;;5033158;28;20742;-71
2021/07/10 02:55:41;;;;;;;8.60;7.33;;;15.80;99.90;;;;;;5032648;28;20879;-71
2021/07/10 02:58:09;;;;;;;8.33;7.60;;;15.70;99.90;;;;;;5032938;28;20896;-71
2021/07/10 03:00:37;;;;;;;9.53;8.60;;;15.70;99.90;;;;;;5032503;28;20408;-71
2021/07/10 03:03:05;;;;;;;9.67;8.67;;;15.70;99.90;;;;;;5015087;28;20434;-71
2021/07/10 03:05:35;;;;;;;7.57;6.80;;;15.80;99.90;;;;;;5032532;28;20422;-71
2021/07/10 03:08:04;;;;;;;13.10;8.37;;;15.70;99.90;;;;;;5032455;28;20415;-71
2021/07/10 03:10:33;;;;;;;10.37;8.90;;;15.80;99.90;;;;;;5032242;28;20837;-71
2021/07/10 03:13:01;;;;;;;9.70;8.70;;;15.80;99.90;;;;;;5032348;28;20421;-71
2021/07/10 03:15:30;;;;;;;9.37;7.70;;;15.80;99.90;;;;;;5032291;28;20407;-71
2021/07/10 03:17:58;;;;;;;14.10;8.70;;;15.70;99.90;;;;;;5014683;28;20432;-72
2021/07/10 03:20:26;;;;;;;8.27;7.47;;;15.70;99.90;;;;;;5032351;28;20391;-72
2021/07/10 03:22:56;;;;;;;9.43;7.80;;;15.80;99.90;;;;;;5014717;28;20444;-68
2021/07/10 03:25:24;;;;;;;8.57;7.70;;;15.80;99.90;;;;;;5014598;28;20407;-71
2021/07/10 03:27:54;;;;;;;9.57;8.33;;;15.90;99.90;;;;;;5032018;28;20445;-71
2021/07/10 03:30:24;;;;;;;9.13;8.10;;;15.90;99.90;;;;;;5014256;28;20391;-71
2021/07/10 03:32:52;;;;;;;14.33;9.60;;;15.90;99.90;;;;;;5032313;28;20379;-72
2021/07/10 03:35:22;;;;;;;8.90;7.90;;;15.90;99.90;;;;;;5031855;28;20428;-71
2021/07/10 03:37:51;;;;;;;7.87;7.10;;;15.90;99.90;;;;;;5032323;28;20720;-71
2021/07/10 03:40:23;;;;;;;9.40;7.50;;;15.90;99.90;;;;;;5031983;28;20410;-71
2021/07/10 03:42:53;;;;;;;10.23;7.77;;;16.10;99.90;;;;;;5032233;28;20517;-71
2021/07/10 03:45:22;;;;;;;8.77;7.90;;;16.10;99.90;;;;;;5032136;28;20431;-71
2021/07/10 03:47:50;;;;;;;8.37;7.53;;;16.30;99.90;;;;;;5032275;28;20431;-71
2021/07/10 03:50:19;;;;;;;10.90;8.37;;;16.30;99.90;;;;;;5031941;28;20457;-71
2021/07/10 03:52:47;;;;;;;10.77;7.67;;;16.30;99.90;;;;;;5032008;28;20824;-71
2021/07/10 03:55:16;;;;;;;7.93;7.13;;;16.30;99.90;;;;;;5032835;28;20804;-71
2021/07/10 03:57:46;;;;;;;10.90;7.37;;;16.20;99.90;;;;;;5033240;28;20841;-71
2021/07/10 04:00:17;;;;;;;8.77;7.80;;;16.10;99.90;;;;;;5033272;28;20383;-71
2021/07/10 04:02:45;;;;;;;10.80;9.20;;;16.20;99.90;;;;;;5032296;28;21168;-73
2021/07/10 04:05:14;;;;;;;11.43;8.30;;;16.20;99.90;;;;;;5031686;28;20399;-70
2021/07/10 04:07:42;;;;;;;8.97;8.03;;;16.10;99.90;;;;;;5031575;28;20867;-71
2021/07/10 04:10:12;;;;;;;9.10;8.20;;;16.30;99.90;;;;;;5014085;28;20474;-71
2021/07/10 04:12:40;;;;;;;8.40;7.60;;;16.30;99.90;;;;;;5031706;28;20760;-71
2021/07/10 04:15:11;;;;;;;10.03;8.30;;;16.30;99.90;;;;;;5031209;28;20819;-71
2021/07/10 04:17:40;;;;;;;9.23;8.20;;;16.30;99.90;;;;;;5031398;28;20413;-72
2021/07/10 04:20:10;;;;;;;12.57;10.13;;;16.10;99.90;;;;;;5031372;28;20431;-71
2021/07/10 04:22:38;;;;;;;9.07;7.80;;;16.10;99.90;;;;;;5031358;28;20998;-72
2021/07/10 04:25:09;;;;;;;11.67;10.57;;;16.10;99.90;;;;;;5031212;28;20807;-71
2021/07/10 04:27:39;;;;;;;10.60;9.20;;;16.10;99.90;;;;;;5031223;28;20449;-73
2021/07/10 04:30:08;;;;;;;11.63;9.50;;;16.10;99.90;;;;;;5031689;28;20438;-71
2021/07/10 04:32:38;;;;;;;9.67;8.67;;;16.20;99.90;;;;;;5031871;28;20783;-71
2021/07/10 04:35:08;;;;;;;11.70;9.17;;;16.20;99.90;;;;;;5031409;28;20455;-71
2021/07/10 04:37:36;;;;;;;13.93;10.40;;;16.10;99.90;;;;;;5031051;28;20439;-71
2021/07/10 04:40:06;;;;;;;12.17;10.87;;;16.20;99.90;;;;;;5030346;28;20440;-71
2021/07/10 04:42:35;;;;;;;11.70;9.73;;;16.20;99.90;;;;;;5012996;28;20468;-70
2021/07/10 04:45:04;;;;;;;11.97;10.77;;;16.20;99.90;;;;;;5030871;28;20420;-71
2021/07/10 04:47:33;;;;;;;11.60;9.80;;;16.20;99.90;;;;;;5030633;28;20434;-71
2021/07/10 04:50:02;;;;;;;13.10;11.30;;;16.20;99.90;;;;;;5012913;28;20407;-71
2021/07/10 04:52:31;;;;;;;13.27;10.90;;;16.30;99.90;;;;;;5030687;28;20835;-72
2021/07/10 04:54:59;;;;;;;12.97;11.07;;;16.20;99.90;;;;;;5012720;28;20915;-71
2021/07/10 04:57:27;;;;;;;10.70;9.00;;;16.20;99.90;;;;;;5030579;28;20428;-71
2021/07/10 04:59:55;;;;;;;11.87;9.53;;;16.20;99.90;;;;;;5030432;28;20403;-70
2021/07/10 05:02:27;;;;;;;12.07;10.80;;;16.10;99.90;;;;;;5030507;28;20535;-72
2021/07/10 05:04:55;;;;;;;12.30;10.10;;;16.00;99.90;;;;;;5030302;28;20420;-73
2021/07/10 05:07:25;;;;;;;10.77;9.67;;;16.00;99.90;;;;;;5030321;28;20812;-72
2021/07/10 05:09:53;;;;;;;14.37;10.00;;;16.00;99.90;;;;;;5030644;28;20428;-72
2021/07/10 05:12:22;;;;;;;13.80;11.10;;;16.10;99.90;;;;;;5030189;28;20426;-72
2021/07/10 05:14:51;;;;;;;12.57;9.90;;;16.20;99.90;;;;;;5030739;28;20473;-71
2021/07/10 05:17:20;;;;;;;12.27;10.00;;;16.30;99.90;;;;;;5012420;28;20450;-72
2021/07/10 05:19:48;;;;;;;11.90;10.73;;;16.30;99.90;;;;;;5030664;28;20391;-72
2021/07/10 05:22:17;;;;;;;10.73;9.63;;;16.30;99.90;;;;;;5030596;28;20426;-72
2021/07/10 05:24:47;;;;;;;12.80;10.17;;;16.40;99.90;;;;;;5030710;28;20395;-72
2021/07/10 05:27:15;;;;;;;15.80;10.07;;;16.40;99.90;;;;;;5030297;28;20648;-72
2021/07/10 05:29:44;;;;;;;12.70;9.63;;;16.40;99.90;;;;;;5030549;28;20394;-72
2021/07/10 05:32:13;;;;;;;11.80;9.80;;;16.50;99.90;;;;;;5030360;28;20427;-72
2021/07/10 05:34:42;;;;;;;10.90;8.67;;;16.60;99.90;;;;;;5030434;28;20406;-72
2021/07/10 05:37:10;;;;;;;16.73;10.07;;;16.70;99.90;;;;;;5030054;28;20882;-71
2021/07/10 05:39:42;;;;;;;11.17;10.00;;;16.70;99.90;;;;;;5030078;28;20411;-71
2021/07/10 05:42:12;;;;;;;12.20;7.67;;;16.80;99.90;;;;;;5029992;28;20868;-70
2021/07/10 05:44:40;;;;;;;11.83;9.97;;;16.70;99.90;;;;;;5030250;28;20427;-70
2021/07/10 05:47:08;;;;;;;12.50;10.37;;;16.80;99.90;;;;;;5029400;28;20430;-70
2021/07/10 05:49:37;;;;;;;10.83;9.70;;;16.70;99.90;;;;;;5029876;28;20399;-70
2021/07/10 05:52:05;;;;;;;15.50;11.20;;;16.80;99.90;;;;;;5030152;28;20426;-70
2021/07/10 05:54:34;;;;;;;10.40;8.97;;;16.80;99.90;;;;;;5030244;28;20399;-72
2021/07/10 05:57:02;;;;;;;9.90;8.67;;;16.80;99.90;;;;;;5029453;28;20891;-71
2021/07/10 05:59:31;;;;;;;10.17;9.17;;;17.00;99.90;;;;;;5030032;28;20786;-71
2021/07/10 06:01:59;;;;;;;10.80;8.07;;;17.20;99.90;;;;;;5030053;28;20422;-70
2021/07/10 06:04:28;;;;;;;9.70;8.63;;;17.50;99.90;;;;;;5012266;28;20418;-69
2021/07/10 06:06:56;;;;;;;8.50;7.60;;;17.80;99.90;;;;;;5011497;28;20427;-70
2021/07/10 06:09:24;;;;;;;11.20;9.67;;;17.80;99.90;;;;;;5029762;28;20411;-71
2021/07/10 06:11:52;;;;;;;9.67;7.87;;;18.10;99.90;;;;;;5029629;28;20440;-72
2021/07/10 06:14:21;;;;;;;10.63;8.97;;;18.40;99.90;;;;;;5029590;28;20482;-72
2021/07/10 06:16:51;;;;;;;9.67;8.60;;;18.50;99.90;;;;;;5028990;28;20795;-71
2021/07/10 06:19:19;;;;;;;10.60;8.00;;;18.50;99.90;;;;;;5029967;28;20420;-70
2021/07/10 06:21:47;;;;;;;9.97;7.30;;;18.40;99.90;;;;;;5030210;28;21003;-70
2021/07/10 06:24:15;;;;;;;10.73;7.90;;;18.30;99.90;;;;;;5030976;28;20805;-70
2021/07/10 06:26:44;;;;;;;8.93;7.40;;;18.10;99.90;;;;;;5032739;28;20482;-70
2021/07/10 06:29:16;;;;;;;11.43;8.17;;;18.00;99.90;;;;;;5036401;28;20915;-70
2021/07/10 06:31:44;;;;;;;9.20;8.20;;;18.00;99.90;;;;;;5033973;28;20455;-72
2021/07/10 06:34:14;;;;;;;10.00;8.67;;;18.00;99.90;;;;;;5033096;28;20430;-71
2021/07/10 06:36:42;;;;;;;9.13;8.10;;;17.90;99.90;;;;;;5014784;28;20478;-72
2021/07/10 06:39:11;;;;;;;9.37;8.17;;;17.90;99.90;;;;;;5035618;28;20428;-72
2021/07/10 06:41:39;;;;;;;11.43;7.23;;;18.10;99.90;;;;;;5036888;28;20513;-72
2021/07/10 06:44:07;;;;;;;10.03;8.20;;;18.20;99.90;;;;;;5038431;28;20467;-72
2021/07/10 06:46:35;;;;;;;10.67;8.40;;;18.40;99.90;;;;;;5021685;28;20430;-70
2021/07/10 06:49:04;;;;;;;11.00;9.10;;;18.80;99.90;;;;;;5018935;28;20482;-70
2021/07/10 06:51:35;;;;;;;8.70;7.53;;;19.10;99.90;;;;;;5036373;28;20447;-70
2021/07/10 06:54:03;;;;;;;13.20;7.47;;;19.40;99.90;;;;;;5036265;28;20435;-72
2021/07/10 06:56:31;;;;;;;10.23;7.27;;;19.60;99.90;;;;;;5033542;28;20398;-71
2021/07/10 06:59:00;;;;;;;8.73;7.93;;;19.70;99.90;;;;;;5029536;28;20994;-71
2021/07/10 07:01:28;;;;;;;8.10;6.83;;;19.80;99.90;;;;;;5030265;28;20441;-70
2021/07/10 07:03:57;;;;;;;8.30;7.50;;;19.00;99.90;;;;;;5033528;28;20424;-71
2021/07/10 07:06:25;;;;;;;7.87;7.07;;;18.80;1.00;;;;;;5033404;28;20459;-71
2021/07/10 07:08:57;;;;;;;9.17;7.27;;;18.90;1.00;;;;;;5033338;28;20460;-71
2021/07/10 07:11:25;;;;;;;10.50;7.20;;;18.90;1.00;;;;;;5033907;28;20451;-71
2021/07/10 07:13:54;;;;;;;8.80;7.90;;;18.80;99.90;;;;;;5032507;28;20425;-71
2021/07/10 07:16:22;;;;;;;10.00;7.60;;;18.90;99.90;;;;;;5032318;28;20444;-70
2021/07/10 07:18:50;;;;;;;7.37;6.70;;;18.90;99.90;;;;;;5032145;28;20452;-70
2021/07/10 07:21:19;;;;;;;8.67;7.00;;;18.80;99.90;;;;;;5032341;28;20444;-69
2021/07/10 07:23:47;;;;;;;9.60;7.80;;;19.00;99.90;;;;;;5032101;28;20524;-69
2021/07/10 07:26:18;;;;;;;9.00;7.90;;;19.20;99.90;;;;;;5032043;28;20395;-71
2021/07/10 07:28:47;;;;;;;9.93;7.80;;;19.40;99.90;;;;;;5031835;28;20454;-70
2021/07/10 07:31:15;;;;;;;8.47;7.23;;;19.60;99.90;;;;;;5031949;28;20418;-71
2021/07/10 07:33:44;;;;;;;9.57;8.73;;;19.20;99.90;;;;;;5029983;28;20424;-70
2021/07/10 07:36:12;;;;;;;11.60;7.67;;;19.30;99.90;;;;;;5028828;28;20904;-71
2021/07/10 07:38:41;;;;;;;8.37;7.57;;;19.00;99.90;;;;;;5032130;28;20424;-70
2021/07/10 07:41:09;;;;;;;9.00;7.67;;;19.20;99.90;;;;;;5032287;28;20455;-70
2021/07/10 07:43:38;;;;;;;8.47;7.53;;;19.50;99.90;;;;;;5032318;28;20414;-71
2021/07/10 07:46:07;;;;;;;8.20;7.40;;;19.80;99.90;;;;;;5032280;28;20422;-71
2021/07/10 07:48:35;;;;;;;6.87;6.17;;;20.10;99.90;;;;;;5032005;28;20442;-70
2021/07/10 07:51:03;;;;;;;8.00;7.27;;;20.20;99.90;;;;;;5032246;28;20418;-70
2021/07/10 07:53:31;;;;;;;6.70;5.60;;;20.40;99.90;;;;;;5032504;28;20424;-71
2021/07/10 07:55:59;;;;;;;6.93;6.00;;;20.70;99.90;;;;;;5032163;28;20997;-71
2021/07/10 07:58:27;;;;;;;6.33;5.73;;;20.90;99.90;;;;;;5031935;28;20833;-71
2021/07/10 08:00:57;;;;;;;6.87;6.27;;;20.90;99.90;;;;;;5032411;28;20480;-71
2021/07/10 08:03:25;;;;;;;7.10;6.50;;;21.00;99.90;;;;;;5013877;28;20440;-71
2021/07/10 08:05:54;;;;;;;5.93;5.43;;;20.80;99.90;;;;;;5031894;28;20387;-70
2021/07/10 08:08:22;;;;;;;7.10;6.43;;;20.40;99.90;;;;;;5013776;28;20472;-71
2021/07/10 08:10:50;;;;;;;7.23;6.53;;;20.10;99.90;;;;;;5032034;28;20810;-71
2021/07/10 08:13:18;;;;;;;6.20;5.60;;;20.20;99.90;;;;;;5030547;28;20470;-71
2021/07/10 08:15:46;;;;;;;5.73;5.13;;;20.20;99.90;;;;;;5031147;28;20490;-71
2021/07/10 08:18:16;;;;;;;7.57;6.80;;;20.00;99.90;;;;;;5029383;28;20443;-72
2021/07/10 08:20:44;;;;;;;8.20;6.10;;;20.20;99.90;;;;;;5013508;28;20467;-70
2021/07/10 08:23:13;;;;;;;6.93;5.30;;;20.30;99.90;;;;;;5031635;28;20411;-70
2021/07/10 08:25:42;;;;;;;7.10;6.43;;;20.70;99.90;;;;;;5026341;28;20454;-71
2021/07/10 08:28:10;;;;;;;6.00;5.50;;;20.80;99.90;;;;;;5011570;28;20964;-72
2021/07/10 08:30:39;;;;;;;7.00;6.30;;;21.00;99.90;;;;;;5011896;28;20486;-71
2021/07/10 08:33:07;;;;;;;6.33;5.83;;;20.70;99.90;;;;;;5011862;28;20436;-73
2021/07/10 08:35:36;;;;;;;6.60;6.00;;;20.40;99.90;;;;;;5011394;28;20421;-72
2021/07/10 08:38:06;;;;;;;6.57;5.97;;;20.20;99.90;;;;;;5011957;28;20406;-70
2021/07/10 08:40:35;;;;;;;8.70;5.63;;;20.30;99.90;;;;;;5011700;28;20857;-69
2021/07/10 08:43:04;;;;;;;5.93;5.20;;;20.30;99.90;;;;;;5011673;28;20479;-70
2021/07/10 08:45:35;;;;;;;5.43;4.00;;;20.50;99.90;;;;;;5009895;28;20419;-69
2021/07/10 08:48:04;;;;;;;5.23;4.40;;;21.00;99.90;;;;;;5011665;28;20522;-69
2021/07/10 08:50:34;;;;;;;4.90;4.50;;;21.40;99.90;;;;;;5011316;28;20862;-70
2021/07/10 08:53:04;;;;;;;4.60;4.20;;;21.60;99.90;;;;;;5011548;28;20429;-71
2021/07/10 08:55:33;;;;;;;6.47;4.90;;;21.80;99.90;;;;;;5011113;28;20468;-71
2021/07/10 08:58:01;;;;;;;4.53;4.10;;;21.60;99.90;;;;;;5011645;28;20487;-70
2021/07/10 09:00:32;;;;;;;4.93;4.07;;;21.50;99.90;;;;;;5010889;28;20405;-72
2021/07/10 09:03:01;;;;;;;5.67;5.10;;;21.40;99.90;;;;;;5011697;28;20424;-71
2021/07/10 09:05:30;;;;;;;4.47;4.03;;;21.60;99.90;;;;;;5011095;28;20417;-71
2021/07/10 09:08:20;;;;;;;5.67;5.17;;;22.10;99.90;;;;;;5011270;28;20400;-70
2021/07/10 09:10:52;;;;;;;4.33;4.03;;;22.40;99.90;;;;;;5011252;28;20890;-71
2021/07/10 09:13:22;;;;;;;5.20;4.70;;;22.10;99.90;;;;;;5010451;28;20447;-70
2021/07/10 09:15:50;;;;;;;5.00;4.43;;;22.00;99.90;;;;;;5011015;28;20429;-71
2021/07/10 09:18:18;;;;;;;6.23;5.63;;;21.70;99.90;;;;;;5011098;28;20435;-71
2021/07/10 09:20:48;;;;;;;5.20;4.70;;;21.60;99.90;;;;;;5011435;28;20817;-72
2021/07/10 09:23:26;;;;;;;5.80;5.20;;;21.70;99.90;;;;;;5006262;28;20551;-70
2021/07/10 09:25:54;;;;;;;6.80;4.50;;;21.60;99.90;;;;;;5028651;28;20435;-70
2021/07/10 09:28:29;;;;;;;6.07;5.40;;;21.40;99.90;;;;;;5033779;28;20424;-71
2021/07/10 09:30:58;;;;;;;6.90;5.60;;;21.60;99.90;;;;;;5031474;28;20471;-72
2021/07/10 09:33:28;;;;;;;6.87;6.23;;;21.40;99.90;;;;;;5014480;28;20436;-72
2021/07/10 09:35:59;;;;;;;5.50;5.00;;;21.40;99.90;;;;;;5032233;28;20407;-73
2021/07/10 09:38:33;;;;;;;8.70;5.47;;;21.80;99.90;;;;;;5036117;28;20409;-72
2021/07/10 09:41:14;;;;;;;7.30;6.63;;;21.80;99.90;;;;;;5068229;22;20448;-89
2021/07/10 09:44:17;;;;;;;7.60;5.30;;;21.90;99.90;;;;;;5058583;28;20434;-87
2021/07/10 09:47:09;;;;;;;6.93;6.33;;;21.70;99.90;;;;;;5058433;28;20449;-87
2021/07/10 09:50:00;;;;;;;5.90;5.20;;;22.00;99.90;;;;;;5055408;28;20451;-87
2021/07/10 09:52:35;;;;;;;5.10;4.60;;;22.50;99.90;;;;;;5056813;28;20435;-87
2021/07/10 09:55:13;;;;;;;7.40;6.70;;;22.40;99.90;;;;;;5072343;28;20423;-88
2021/07/10 09:58:04;;;;;;;6.47;5.77;;;22.50;99.90;;;;;;5053657;28;20470;-81
2021/07/10 10:00:32;;;;;;;5.93;5.33;;;22.50;99.90;;;;;;5060585;28;20518;-80
2021/07/10 10:03:01;;;;;;;6.33;5.73;;;21.90;99.90;;;;;;5060035;28;20429;-82
2021/07/10 10:05:32;;;;;;;7.63;6.57;;;21.30;99.90;;;;;;5058460;28;20398;-83
2021/07/10 10:08:02;;;;;;;8.90;7.30;;;21.30;99.90;;;;;;5058858;28;20385;-80
2021/07/10 10:10:34;;;;;;;6.93;5.93;;;21.50;99.90;;;;;;5041642;28;20561;-81
2021/07/10 10:13:18;;;;;;;7.70;6.70;;;21.50;99.90;;;;;;5061371;28;20389;-82
2021/07/10 10:15:55;;;;;;;6.80;5.80;;;21.50;99.90;;;;;;5059735;28;20393;-81
2021/07/10 10:18:40;;;;;;;7.23;5.77;;;22.00;99.90;;;;;;5060445;28;20382;-83
2021/07/10 10:21:17;;;;;;;7.97;5.60;;;22.50;99.90;;;;;;5042152;28;20468;-82
2021/07/10 10:23:47;;;;;;;7.03;6.33;;;22.50;99.90;;;;;;5044968;28;20431;-83
2021/07/10 10:26:24;;;;;;;7.07;6.37;;;22.60;99.90;;;;;;5047519;28;20419;-85
2021/07/10 10:28:58;;;;;;;6.30;5.70;;;22.60;99.90;;;;;;5066148;28;20407;-81
2021/07/10 10:31:49;;;;;;;5.07;4.63;;;22.20;99.90;;;;;;5065491;28;20482;-86
2021/07/10 10:34:21;;;;;;;6.03;5.43;;;22.00;99.90;;;;;;5068502;28;20794;-85
2021/07/10 10:36:52;;;;;;;7.50;6.70;;;21.90;99.90;;;;;;5066805;28;20415;-80
2021/07/10 10:39:22;;;;;;;6.20;5.60;;;21.40;99.90;;;;;;5055564;28;20405;-87
2021/07/10 10:42:02;;;;;;;6.60;5.60;;;21.40;99.90;;;;;;5069903;28;20430;-82
2021/07/10 10:44:44;;;;;;;5.73;5.20;;;21.50;99.90;;;;;;5066295;28;20442;-83
2021/07/10 10:47:15;;;;;;;5.33;4.83;;;21.40;99.90;;;;;;5065394;28;20445;-84
2021/07/10 10:49:49;;;;;;;5.77;5.23;;;21.60;99.90;;;;;;5063850;28;20458;-81
2021/07/10 10:52:33;;;;;;;6.13;5.27;;;21.80;99.90;;;;;;5066022;28;20432;-82
2021/07/10 10:55:22;;;;;;;5.20;4.70;;;22.20;99.90;;;;;;5047874;28;20453;-80
2021/07/10 11:00:46;;;;;;;5.20;4.60;;;23.10;99.90;;;;;;5066259;28;20467;-79
2021/07/10 11:03:38;;;;;;;6.10;4.50;;;23.50;99.90;;;;;;5045670;28;20510;-79
2021/07/10 11:06:30;;;;;;;7.60;5.23;;;23.80;99.90;;;;;;5043525;28;20446;-81
2021/07/10 11:08:59;;;;;;;6.80;4.70;;;23.70;99.90;;;;;;5061599;28;20442;-80
2021/07/10 11:11:28;;;;;;;6.43;5.20;;;23.10;99.90;;;;;;5064362;28;20521;-80
2021/07/10 11:14:07;;;;;;;6.10;5.60;;;23.00;99.90;;;;;;5065900;28;20390;-80
2021/07/10 11:16:36;;;;;;;7.33;6.10;;;23.00;99.90;;;;;;5062217;28;20415;-83
2021/07/10 11:19:06;;;;;;;4.57;4.17;;;23.30;99.90;;;;;;5060831;28;20393;-82
2021/07/10 11:21:41;;;;;;;5.17;4.23;;;23.40;99.90;;;;;;5064657;28;20485;-82
2021/07/10 11:24:25;;;;;;;5.90;5.03;;;23.10;99.90;;;;;;5062884;28;20415;-83
2021/07/10 11:27:25;;;;;;;5.13;4.17;;;22.80;99.90;;;;;;5060779;28;20419;-81
2021/07/10 11:30:20;;;;;;;4.57;4.07;;;22.90;99.90;;;;;;5045190;28;20434;-81
2021/07/10 11:32:49;;;;;;;5.53;4.17;;;23.00;99.90;;;;;;5062861;28;20392;-80
2021/07/10 11:35:36;;;;;;;5.57;4.13;;;23.30;99.90;;;;;;5061585;28;20493;-83
2021/07/10 11:38:05;;;;;;;4.37;3.97;;;23.50;99.90;;;;;;5060567;28;20412;-80
2021/07/10 11:40:38;;;;;;;5.10;4.70;;;23.70;99.90;;;;;;5062789;28;20501;-81
2021/07/10 11:43:08;;;;;;;5.00;4.53;;;23.80;99.90;;;;;;5063959;28;20435;-82
2021/07/10 11:45:47;;;;;;;4.77;4.37;;;24.00;99.90;;;;;;5064994;28;20419;-82
2021/07/10 11:48:22;;;;;;;4.50;4.00;;;23.90;99.90;;;;;;5064272;28;20819;-82
2021/07/10 11:51:18;;;;;;;5.20;4.53;;;23.70;99.90;;;;;;5064792;28;20890;-80
2021/07/10 11:53:58;;;;;;;3.80;3.50;;;23.50;99.90;;;;;;5073077;28;20416;-81
2021/07/10 11:56:26;;;;;;;6.97;4.43;;;23.40;99.90;;;;;;5073083;28;20476;-83
2021/07/10 11:58:55;;;;;;;4.77;4.23;;;23.60;99.90;;;;;;5074657;28;20514;-83
2021/07/10 12:01:26;;;;;;;5.37;4.87;;;23.80;99.90;;;;;;5057584;28;20458;-83
2021/07/10 12:03:55;;;;;;;4.70;4.30;;;24.20;99.90;;;;;;5073693;28;20411;-80
2021/07/10 12:06:23;;;;;;;5.13;4.57;;;24.20;99.90;;;;;;5077935;28;20400;-83
2021/07/10 12:09:00;;;;;;;3.80;3.50;;;24.30;99.90;;;;;;5060112;28;20423;-83
2021/07/10 12:11:28;;;;;;;5.23;4.73;;;24.80;99.90;;;;;;5057915;28;20471;-85
2021/07/10 12:14:04;;;;;;;7.87;5.10;;;25.10;99.90;;;;;;5076711;28;20419;-84
2021/07/10 12:16:33;;;;;;;4.20;3.80;;;25.20;99.90;;;;;;5074701;28;20399;-83
2021/07/10 12:19:02;;;;;;;4.53;3.87;;;25.10;99.90;;;;;;5073067;28;20798;-80
2021/07/10 12:21:36;;;;;;;4.53;4.13;;;25.10;99.90;;;;;;5051949;28;20505;-83
2021/07/10 12:24:05;;;;;;;5.63;4.30;;;25.20;99.90;;;;;;5041424;28;20432;-81
2021/07/10 12:26:34;;;;;;;4.80;4.30;;;25.20;99.90;;;;;;5057417;28;20423;-81
2021/07/10 12:29:02;;;;;;;4.67;4.27;;;25.40;99.90;;;;;;5057765;28;20408;-82
2021/07/10 12:31:34;;;;;;;4.93;4.53;;;25.40;99.90;;;;;;5056185;28;20470;-84
2021/07/10 12:34:04;;;;;;;4.43;4.03;;;25.40;99.90;;;;;;5056465;28;20569;-83
2021/07/10 12:36:34;;;;;;;4.50;4.10;;;25.10;99.90;;;;;;5057398;28;20416;-80
2021/07/10 12:39:11;;;;;;;4.10;3.70;;;25.40;99.90;;;;;;5061431;28;20415;-79
2021/07/10 12:41:43;;;;;;;6.87;4.67;;;25.70;99.90;;;;;;5064034;28;20466;-81
2021/07/10 12:44:24;;;;;;;4.27;3.90;;;25.90;99.90;;;;;;5059446;28;20407;-83
2021/07/10 12:47:05;;;;;;;4.73;4.20;;;26.20;99.90;;;;;;5035800;28;20447;-81
2021/07/10 12:49:37;;;;;;;5.10;4.50;;;26.00;99.90;;;;;;5055136;28;20453;-80
2021/07/10 12:52:07;;;;;;;4.20;3.80;;;26.20;99.90;;;;;;5054409;28;20449;-80
2021/07/10 12:54:46;;;;;;;4.90;4.40;;;26.00;99.90;;;;;;5055813;28;20932;-82
2021/07/10 12:57:36;;;;;;;4.77;4.37;;;25.70;99.90;;;;;;5036862;28;20450;-84
2021/07/10 13:00:16;;;;;;;5.20;4.60;;;25.50;99.90;;;;;;5036596;28;20458;-80
2021/07/10 13:02:50;;;;;;;5.67;4.37;;;25.60;99.90;;;;;;5055579;28;20425;-82
2021/07/10 13:05:22;;;;;;;4.53;4.13;;;25.80;99.90;;;;;;5055328;28;20427;-81